Time;durP1;ratioP1;P1;durP2;ratioP2;P2;SDS_P1;SDS_P2;PMS_P1;PMS_P2;Temp;Humidity;BMP_temperature;BMP_pressure;BME280_temperature;BME280_humidity;BME280_pressure;Samples;Min_cycle;Max_cycle;Signal;HPM_P1;HPM_P2
2021/10/09 00:01:14;;;;;;;1.92;1.27;;;;;;;12.45;94.03;100466.75;5001981;28;20136;-69
2021/10/09 00:03:40;;;;;;;1.23;1.02;;;;;;;12.43;94.21;100474.88;5003338;28;20130;-69
2021/10/09 00:06:05;;;;;;;1.00;0.90;;;;;;;12.40;94.49;100477.00;5020941;28;20030;-69
2021/10/09 00:08:31;;;;;;;1.52;0.95;;;;;;;12.35;94.34;100473.97;5021829;28;20025;-69
2021/10/09 00:10:57;;;;;;;1.17;0.93;;;;;;;12.65;91.87;100478.84;5009467;28;20041;-69
2021/10/09 00:13:23;;;;;;;1.27;0.93;;;;;;;12.43;93.26;100479.34;5021173;28;20077;-69
2021/10/09 00:15:48;;;;;;;1.38;0.90;;;;;;;12.47;92.78;100480.69;5022174;28;20026;-69
2021/10/09 00:18:14;;;;;;;1.25;0.90;;;;;;;12.45;93.35;100480.03;5022925;28;20032;-69
2021/10/09 00:20:39;;;;;;;1.38;1.10;;;;;;;12.66;91.62;100480.53;5021219;28;20030;-69
2021/10/09 00:23:05;;;;;;;1.55;1.00;;;;;;;12.69;91.97;100482.88;5022668;28;20036;-69
2021/10/09 00:25:30;;;;;;;0.90;0.90;;;;;;;12.61;92.93;100479.31;5022783;28;20192;-69
2021/10/09 00:27:56;;;;;;;0.77;0.75;;;;;;;12.68;92.88;100473.22;5022684;28;20089;-69
2021/10/09 00:30:22;;;;;;;0.75;0.75;;;;;;;12.60;92.17;100473.19;5021792;28;20235;-69
2021/10/09 00:32:47;;;;;;;0.80;0.80;;;;;;;12.62;92.95;100473.03;5022748;28;20057;-71
2021/10/09 00:35:13;;;;;;;0.73;0.73;;;;;;;12.52;92.33;100467.81;5022378;28;20195;-71
2021/10/09 00:37:38;;;;;;;1.45;0.80;;;;;;;12.44;92.89;100471.22;5022910;28;20338;-71
2021/10/09 00:40:05;;;;;;;1.60;1.00;;;;;;;12.39;93.37;100468.19;5022330;28;20049;-69
2021/10/09 00:42:30;;;;;;;2.33;0.80;;;;;;;12.50;93.38;100464.47;5022371;28;20072;-71
2021/10/09 00:44:56;;;;;;;1.00;0.73;;;;;;;12.70;91.24;100455.28;5021617;28;20331;-69
2021/10/09 00:47:22;;;;;;;1.77;0.57;;;;;;;12.70;91.11;100454.47;5022129;28;20026;-69
2021/10/09 00:49:48;;;;;;;3.10;0.70;;;;;;;12.69;90.26;100466.09;5022316;28;20038;-69
2021/10/09 00:52:14;;;;;;;0.60;0.55;;;;;;;12.59;90.12;100463.53;5022138;28;20029;-69
2021/10/09 00:54:47;;;;;;;1.60;0.65;;;;;;;12.51;91.74;100462.66;5021936;28;20026;-69
2021/10/09 00:57:16;;;;;;;0.70;0.70;;;;;;;12.35;93.13;100466.00;5022191;28;20038;-70
2021/10/09 00:59:43;;;;;;;0.90;0.90;;;;;;;12.59;92.69;100457.41;5022004;28;20021;-69
2021/10/09 01:02:09;;;;;;;2.20;0.60;;;;;;;12.63;91.60;100451.59;5001387;28;20395;-69
2021/10/09 01:04:36;;;;;;;0.70;0.60;;;;;;;12.40;91.98;100442.47;5001428;28;20034;-69
2021/10/09 01:07:03;;;;;;;1.35;0.65;;;;;;;12.46;91.80;100453.31;5001838;28;20189;-69
2021/10/09 01:09:29;;;;;;;0.70;0.60;;;;;;;12.71;89.84;100450.81;5002068;28;20207;-69
2021/10/09 01:11:54;;;;;;;0.70;0.60;;;;;;;12.66;89.19;100440.66;5015685;28;20030;-69
2021/10/09 01:14:20;;;;;;;0.65;0.57;;;;;;;12.56;89.63;100437.28;5020434;28;20097;-69
2021/10/09 01:16:46;;;;;;;1.63;0.82;;;;;;;12.67;89.82;100447.63;5020690;28;20033;-69
2021/10/09 01:19:12;;;;;;;0.65;0.60;;;;;;;12.72;89.28;100449.81;5010170;28;20041;-69
2021/10/09 01:21:41;;;;;;;0.45;0.45;;;;;;;12.60;89.87;100451.09;5002639;28;20053;-69
2021/10/09 01:24:06;;;;;;;1.30;0.47;;;;;;;12.75;88.16;100450.34;5007320;28;20072;-69
2021/10/09 01:26:32;;;;;;;0.70;0.45;;;;;;;12.85;88.07;100449.38;5011826;28;20323;-69
2021/10/09 01:28:58;;;;;;;2.20;0.60;;;;;;;12.73;87.78;100440.84;5007877;28;20350;-69
2021/10/09 01:31:23;;;;;;;1.38;0.52;;;;;;;12.68;88.61;100438.69;5011684;28;20042;-69
2021/10/09 01:33:49;;;;;;;0.40;0.40;;;;;;;12.71;88.56;100435.69;5009958;28;20323;-69
2021/10/09 01:36:15;;;;;;;3.13;0.45;;;;;;;12.72;89.33;100440.03;5018160;28;20049;-69
2021/10/09 01:38:40;;;;;;;0.50;0.50;;;;;;;12.58;88.95;100443.28;5009103;28;20248;-69
2021/10/09 01:41:07;;;;;;;1.23;0.40;;;;;;;12.66;88.86;100440.66;5010205;28;20041;-69
2021/10/09 01:43:33;;;;;;;0.43;0.40;;;;;;;12.73;87.62;100438.19;5021231;28;20316;-69
2021/10/09 01:45:58;;;;;;;0.65;0.50;;;;;;;12.38;89.90;100437.31;5018064;28;20072;-69
2021/10/09 01:48:33;;;;;;;1.35;0.60;;;;;;;12.47;90.60;100436.38;5018243;28;20065;-69
2021/10/09 01:50:59;;;;;;;1.38;0.60;;;;;;;12.49;89.85;100443.38;5016610;28;20022;-69
2021/10/09 01:53:25;;;;;;;0.30;0.30;;;;;;;12.56;89.08;100439.13;5014560;28;20030;-69
2021/10/09 01:55:50;;;;;;;0.50;0.40;;;;;;;12.67;88.84;100437.00;5020864;28;20095;-69
2021/10/09 01:58:16;;;;;;;0.90;0.50;;;;;;;12.64;87.82;100445.31;5013371;28;20077;-69
2021/10/09 02:00:41;;;;;;;9.15;0.60;;;;;;;12.70;87.56;100443.84;5014172;28;20370;-69
2021/10/09 02:03:08;;;;;;;0.85;0.50;;;;;;;12.68;88.41;100437.84;5012293;28;20315;-69
2021/10/09 02:05:35;;;;;;;0.57;0.40;;;;;;;12.61;88.94;100448.28;5014390;28;20084;-69
2021/10/09 02:08:02;;;;;;;0.43;0.43;;;;;;;12.78;88.25;100449.19;5018086;28;20215;-69
2021/10/09 02:10:28;;;;;;;3.35;0.63;;;;;;;12.71;88.13;100458.78;5024299;28;20238;-69
2021/10/09 02:12:55;;;;;;;1.38;0.50;;;;;;;12.61;88.39;100452.75;5021550;28;20034;-69
2021/10/09 02:26:16;;;;;;;1.85;0.50;;;;;;;12.74;87.13;100448.69;5012908;28;20072;-69
2021/10/09 02:28:41;;;;;;;1.63;0.50;;;;;;;12.69;87.09;100439.50;5022584;28;20030;-69
2021/10/09 02:31:07;;;;;;;0.50;0.50;;;;;;;12.66;87.64;100450.47;5023829;28;20252;-68
2021/10/09 02:33:32;;;;;;;0.60;0.50;;;;;;;12.47;87.69;100454.13;5022682;28;20323;-71
2021/10/09 02:35:58;;;;;;;0.50;0.50;;;;;;;12.55;88.04;100464.00;5022815;28;20435;-69
2021/10/09 02:38:23;;;;;;;4.50;0.57;;;;;;;12.54;88.38;100452.56;5020106;28;20239;-69
2021/10/09 02:40:49;;;;;;;1.98;0.40;;;;;;;12.55;88.18;100464.84;5021849;28;20034;-69
2021/10/09 02:43:15;;;;;;;0.38;0.38;;;;;;;12.52;89.20;100457.19;5020426;28;20044;-69
2021/10/09 02:45:40;;;;;;;1.85;0.63;;;;;;;12.65;88.25;100454.09;5015191;28;20041;-69
2021/10/09 02:48:07;;;;;;;1.35;0.60;;;;;;;12.76;88.35;100453.84;5017455;28;20079;-69
2021/10/09 02:50:33;;;;;;;0.40;0.30;;;;;;;12.80;87.59;100455.19;5019160;28;20034;-69
2021/10/09 02:52:59;;;;;;;0.30;0.30;;;;;;;12.80;86.72;100455.19;5018078;28;20045;-69
2021/10/09 02:55:24;;;;;;;0.40;0.40;;;;;;;12.69;87.66;100456.28;5014113;28;20073;-69
2021/10/09 02:57:51;;;;;;;1.55;0.68;;;;;;;12.66;87.90;100456.59;5003435;28;20054;-69
2021/10/09 03:00:18;;;;;;;0.52;0.52;;;;;;;12.52;88.11;100448.38;5003964;28;20109;-69
2021/10/09 03:02:44;;;;;;;0.32;0.32;;;;;;;12.38;88.92;100458.56;5018555;28;20267;-69
2021/10/09 03:05:11;;;;;;;0.98;0.40;;;;;;;12.30;89.24;100450.56;5003272;28;20042;-71
2021/10/09 03:07:37;;;;;;;0.50;0.50;;;;;;;12.07;89.62;100444.91;5004077;28;20038;-69
2021/10/09 03:10:08;;;;;;;0.50;0.50;;;;;;;11.96;91.01;100452.28;5016452;28;20041;-69
2021/10/09 03:12:34;;;;;;;0.52;0.40;;;;;;;11.87;91.00;100432.81;5021428;28;20046;-69
2021/10/09 03:14:59;;;;;;;1.25;0.60;;;;;;;12.06;91.20;100448.56;5022213;28;20040;-69
2021/10/09 03:17:25;;;;;;;3.70;0.60;;;;;;;12.13;91.67;100454.91;5014504;28;20034;-69
2021/10/09 03:19:50;;;;;;;1.55;0.38;;;;;;;12.15;90.72;100458.25;5022240;28;20037;-69
2021/10/09 03:22:16;;;;;;;0.63;0.40;;;;;;;12.20;90.62;100454.28;5022696;28;20032;-69
2021/10/09 03:24:41;;;;;;;0.68;0.50;;;;;;;12.13;89.63;100451.44;5019324;28;20034;-70
2021/10/09 03:27:07;;;;;;;1.35;0.50;;;;;;;11.97;90.11;100457.44;5002820;28;20022;-68
2021/10/09 03:29:32;;;;;;;1.13;0.50;;;;;;;11.78;90.57;100455.78;5002545;28;20102;-69
2021/10/09 03:31:58;;;;;;;2.85;0.50;;;;;;;11.93;90.29;100464.03;5022761;28;20255;-69
2021/10/09 03:34:23;;;;;;;0.57;0.47;;;;;;;11.93;91.07;100471.19;5022467;28;20113;-69
2021/10/09 03:36:49;;;;;;;0.30;0.30;;;;;;;11.81;90.69;100466.09;5019575;28;20080;-70
2021/10/09 03:39:18;;;;;;;0.45;0.45;;;;;;;11.90;91.23;100469.66;5022861;28;20041;-69
2021/10/09 03:41:49;;;;;;;1.65;0.30;;;;;;;11.96;90.46;100469.03;5016933;28;20048;-70
2021/10/09 03:44:14;;;;;;;1.40;0.50;;;;;;;12.04;90.27;100468.28;5017888;28;20034;-69
2021/10/09 03:46:47;;;;;;;1.10;0.40;;;;;;;11.95;90.22;100464.72;5014659;28;20101;-69
2021/10/09 03:49:26;;;;;;;2.13;0.63;;;;;;;12.22;90.08;100465.59;5014780;28;20046;-69
2021/10/09 03:54:35;;;;;;;1.80;0.40;;;;;;;12.11;89.71;100464.84;5021911;28;20270;-69
2021/10/09 03:57:01;;;;;;;0.60;0.60;;;;;;;12.12;89.78;100457.72;5014054;28;20038;-69
2021/10/09 03:59:26;;;;;;;0.75;0.50;;;;;;;12.07;89.21;100460.00;5015633;28;20219;-69
2021/10/09 04:01:52;;;;;;;0.40;0.40;;;;;;;12.14;90.14;100461.06;5017762;28;20033;-69
2021/10/09 04:04:17;;;;;;;0.38;0.38;;;;;;;12.24;89.54;100463.63;5019945;28;20348;-69
2021/10/09 04:06:42;;;;;;;1.90;0.50;;;;;;;12.30;88.77;100457.69;5022245;28;20321;-69
2021/10/09 04:09:08;;;;;;;2.97;0.52;;;;;;;12.36;88.82;100460.53;5018548;28;20316;-69
2021/10/09 04:11:33;;;;;;;0.45;0.45;;;;;;;12.22;88.76;100450.50;5014003;28;20030;-69
2021/10/09 04:13:58;;;;;;;0.47;0.43;;;;;;;12.27;88.89;100458.81;5020705;28;20041;-69
2021/10/09 04:16:24;;;;;;;1.75;0.70;;;;;;;12.37;88.82;100458.72;5018729;28;20089;-69
2021/10/09 04:18:49;;;;;;;2.67;0.60;;;;;;;12.28;88.17;100457.84;5008638;28;20098;-70
2021/10/09 04:21:15;;;;;;;1.05;0.65;;;;;;;12.08;89.46;100454.53;5001970;28;20088;-69
2021/10/09 04:23:40;;;;;;;1.50;0.50;;;;;;;11.90;90.90;100456.38;5004061;28;20228;-70
2021/10/09 04:26:06;;;;;;;0.70;0.68;;;;;;;12.05;91.11;100456.66;5012003;28;20040;-69
2021/10/09 04:28:32;;;;;;;0.55;0.40;;;;;;;12.05;90.84;100459.31;5019986;28;20038;-69
2021/10/09 04:30:57;;;;;;;1.30;0.60;;;;;;;11.97;91.41;100473.38;5013857;28;20030;-69
2021/10/09 04:33:22;;;;;;;0.70;0.50;;;;;;;11.94;91.25;100476.31;5020873;28;20056;-69
2021/10/09 04:35:48;;;;;;;1.00;0.50;;;;;;;11.89;90.37;100477.78;5010426;28;20375;-69
2021/10/09 04:38:14;;;;;;;0.98;0.55;;;;;;;11.95;90.58;100480.66;5016923;28;20108;-70
2021/10/09 04:40:39;;;;;;;5.05;0.60;;;;;;;12.09;90.02;100477.44;5020436;28;20021;-69
2021/10/09 04:43:05;;;;;;;2.83;0.90;;;;;;;12.06;90.28;100484.88;5010956;28;20022;-71
2021/10/09 04:45:31;;;;;;;0.77;0.60;;;;;;;11.98;90.42;100487.47;5002969;28;20038;-69
2021/10/09 04:47:56;;;;;;;0.55;0.55;;;;;;;12.00;90.53;100493.47;5016200;28;20026;-69
2021/10/09 04:50:22;;;;;;;2.35;0.55;;;;;;;11.91;90.82;100494.38;5021150;28;20030;-69
2021/10/09 04:52:47;;;;;;;0.57;0.52;;;;;;;11.94;91.28;100502.03;5019181;28;20033;-69
2021/10/09 04:55:13;;;;;;;1.60;0.68;;;;;;;11.98;90.83;100498.09;5014506;28;20093;-69
2021/10/09 04:57:39;;;;;;;2.42;0.50;;;;;;;11.82;91.89;100499.59;5019300;28;20092;-69
2021/10/09 05:00:05;;;;;;;2.03;0.50;;;;;;;12.09;90.96;100504.00;5008710;28;20031;-69
2021/10/09 05:02:31;;;;;;;2.67;0.40;;;;;;;11.98;90.05;100506.06;5016143;28;20049;-71
2021/10/09 05:04:56;;;;;;;1.23;0.60;;;;;;;12.07;89.97;100505.97;5015365;28;20101;-71
2021/10/09 05:07:22;;;;;;;1.23;0.60;;;;;;;12.03;90.17;100520.53;5018519;28;20017;-69
2021/10/09 05:09:49;;;;;;;9.73;2.33;;;;;;;11.96;90.98;100515.97;5013414;28;20034;-69
2021/10/09 05:12:15;;;;;;;17.55;8.07;;;;;;;12.14;89.90;100520.28;5013463;28;20241;-69
2021/10/09 05:14:40;;;;;;;4.30;2.42;;;;;;;12.17;88.99;100508.53;5016698;28;20254;-71
2021/10/09 05:17:06;;;;;;;4.28;1.55;;;;;;;11.99;90.06;100508.56;5011426;28;20030;-69
2021/10/09 05:19:31;;;;;;;12.73;6.75;;;;;;;11.96;90.84;100524.78;5019485;28;20033;-69
2021/10/09 05:21:57;;;;;;;34.58;17.65;;;;;;;11.84;90.30;100528.66;5010793;28;20270;-71
2021/10/09 05:24:22;;;;;;;70.57;33.10;;;;;;;11.77;90.50;100531.06;5018349;28;20042;-71
2021/10/09 05:26:47;;;;;;;77.90;37.88;;;;;;;11.77;91.20;100533.72;5019108;28;20025;-71
2021/10/09 05:29:16;;;;;;;25.08;14.00;;;;;;;11.63;91.21;100522.75;5018451;28;20535;-69
2021/10/09 05:31:41;;;;;;;16.02;8.35;;;;;;;11.44;92.81;100524.56;5012706;28;20026;-70
2021/10/09 05:34:07;;;;;;;12.35;6.93;;;;;;;11.39;93.52;100520.66;5014155;28;20054;-71
2021/10/09 05:36:32;;;;;;;53.33;30.80;;;;;;;11.17;94.50;100520.06;5013946;28;20025;-71
2021/10/09 05:38:58;;;;;;;35.85;21.52;;;;;;;11.17;94.20;100517.41;5015014;28;20219;-69
2021/10/09 05:41:23;;;;;;;56.17;33.25;;;;;;;11.52;93.66;100527.28;5016069;28;20041;-70
2021/10/09 05:43:49;;;;;;;40.80;26.02;;;;;;;11.52;94.76;100537.06;5018591;28;20227;-69
2021/10/09 05:46:16;;;;;;;10.32;6.25;;;;;;;11.69;93.78;100535.44;5016997;28;20323;-69
2021/10/09 05:48:42;;;;;;;6.70;4.38;;;;;;;11.67;93.36;100532.94;5005753;28;20030;-71
2021/10/09 06:01:48;;;;;;;0.30;0.30;;;;;;;11.79;91.01;100525.63;5020401;28;20030;-70
2021/10/09 06:45:01;;;;;;;3.28;2.55;;;;;;;12.37;91.00;100581.72;5018384;28;20343;-69
2021/10/09 06:50:12;;;;;;;3.10;1.88;;;;;;;12.46;90.43;100579.97;5016123;28;20041;-69
2021/10/09 07:00:54;;;;;;;1.70;1.10;;;;;;;12.52;89.74;100589.19;5018854;28;20149;-69
2021/10/09 07:03:23;;;;;;;3.53;1.70;;;;;;;12.37;90.28;100587.03;5020371;28;20069;-71
2021/10/09 07:05:50;;;;;;;4.90;3.28;;;;;;;12.30;91.13;100585.16;5015845;28;20030;-71
2021/10/09 07:08:15;;;;;;;6.13;3.67;;;;;;;12.17;91.11;100568.75;5023502;28;20028;-71
2021/10/09 07:10:44;;;;;;;2.90;1.52;;;;;;;12.29;91.68;100594.09;5020054;28;20030;-69
2021/10/09 07:13:10;;;;;;;5.15;1.65;;;;;;;12.42;90.51;100595.38;5018217;28;20093;-70
2021/10/09 07:15:36;;;;;;;3.03;1.52;;;;;;;12.46;90.62;100596.75;5021643;28;20038;-69
2021/10/09 07:18:05;;;;;;;4.00;1.23;;;;;;;12.57;88.29;100598.34;5015007;28;20338;-69
2021/10/09 07:20:31;;;;;;;2.22;1.30;;;;;;;12.54;90.25;100603.13;5017557;28;20029;-69
2021/10/09 07:22:56;;;;;;;2.35;1.50;;;;;;;12.50;90.32;100605.28;5022639;28;20079;-70
2021/10/09 07:25:22;;;;;;;2.53;1.67;;;;;;;12.57;89.55;100605.50;5014615;28;20037;-68
2021/10/09 07:27:48;;;;;;;2.40;1.30;;;;;;;12.65;88.45;100613.53;5016925;28;20315;-69
2021/10/09 07:30:14;;;;;;;4.30;1.73;;;;;;;12.74;88.92;100616.09;5022860;28;20075;-69
2021/10/09 07:32:40;;;;;;;2.40;2.10;;;;;;;12.88;88.97;100611.19;5014264;28;20042;-69
2021/10/09 07:35:06;;;;;;;1.70;1.15;;;;;;;12.87;87.58;100614.84;5020581;28;20188;-69
2021/10/09 07:37:32;;;;;;;2.53;1.38;;;;;;;12.88;87.56;100592.59;5023418;28;20026;-69
2021/10/09 07:39:57;;;;;;;6.82;2.67;;;;;;;12.91;88.49;100605.56;5023147;28;20064;-69
2021/10/09 07:42:23;;;;;;;2.22;1.70;;;;;;;12.90;88.42;100620.69;5023048;28;20374;-69
2021/10/09 07:44:49;;;;;;;3.28;2.00;;;;;;;12.94;89.34;100613.25;5022659;28;20200;-69
2021/10/09 07:47:16;;;;;;;1.20;1.10;;;;;;;12.96;89.08;100613.91;5023356;28;20030;-69
2021/10/09 07:49:41;;;;;;;2.25;1.17;;;;;;;13.13;87.89;100620.16;5021763;28;20026;-68
2021/10/09 07:52:07;;;;;;;1.40;1.10;;;;;;;13.24;88.29;100625.25;5021997;28;20041;-69
2021/10/09 07:54:33;;;;;;;3.08;1.70;;;;;;;13.37;87.87;100620.34;5023067;28;20048;-69
2021/10/09 07:56:58;;;;;;;1.40;1.15;;;;;;;13.54;86.36;100622.09;5022880;28;20037;-69
2021/10/09 07:59:24;;;;;;;1.20;1.10;;;;;;;13.47;85.83;100623.72;5023074;28;20041;-69
2021/10/09 08:01:49;;;;;;;2.47;1.50;;;;;;;13.50;85.61;100623.38;5023326;28;20311;-69
2021/10/09 08:04:16;;;;;;;2.15;1.40;;;;;;;13.39;86.43;100619.19;5022854;28;20170;-69
2021/10/09 08:06:42;;;;;;;3.03;1.33;;;;;;;13.48;85.99;100616.56;5023004;28;20044;-69
2021/10/09 08:09:09;;;;;;;2.75;1.70;;;;;;;13.43;87.80;100625.03;5022909;28;20045;-69
2021/10/09 08:11:37;;;;;;;3.05;1.55;;;;;;;13.59;86.79;100629.59;5022323;28;20242;-71
2021/10/09 08:14:04;;;;;;;2.95;1.60;;;;;;;13.42;86.23;100624.19;5021569;28;20048;-69
2021/10/09 08:16:31;;;;;;;1.98;1.40;;;;;;;13.14;87.28;100613.84;5021617;28;20081;-69
2021/10/09 08:18:58;;;;;;;1.58;1.48;;;;;;;13.08;88.21;100621.47;5022668;28;20022;-69
2021/10/09 08:21:26;;;;;;;4.57;2.83;;;;;;;12.99;89.11;100617.09;5022658;28;20049;-69
2021/10/09 08:40:13;;;;;;;2.13;1.83;;;;;;;12.63;93.88;100623.47;5022325;28;20382;-69
2021/10/09 08:42:39;;;;;;;3.53;1.40;;;;;;;12.42;94.20;100629.06;5015473;28;20042;-69
2021/10/09 08:45:07;;;;;;;3.55;1.30;;;;;;;12.54;94.00;100633.19;5001065;28;20081;-69
2021/10/09 08:47:35;;;;;;;3.28;0.90;;;;;;;12.34;94.90;100629.84;5001494;28;20102;-69
2021/10/09 08:50:01;;;;;;;1.13;1.00;;;;;;;12.26;95.02;100634.25;5002799;28;20034;-69
2021/10/09 08:52:26;;;;;;;2.65;1.27;;;;;;;12.58;93.20;100623.94;5001543;28;20046;-69
2021/10/09 08:54:52;;;;;;;2.03;1.23;;;;;;;12.45;93.09;100629.59;5004157;28;20030;-68
2021/10/09 08:57:21;;;;;;;1.73;1.10;;;;;;;12.12;94.73;100630.28;5001428;28;20041;-69
2021/10/09 09:00:04;;;;;;;2.90;2.10;;;;;;;12.24;94.94;100634.38;5002272;28;20030;-69
2021/10/09 09:02:34;;;;;;;1.88;1.50;;;;;;;12.14;95.78;100637.13;5010851;28;20044;-69
2021/10/09 09:05:37;;;;;;;3.00;1.50;;;;;;;12.11;96.88;100644.53;5002531;28;20026;-69
2021/10/09 09:41:21;;;;;;;5.80;3.90;;;;;;;12.22;97.85;100646.16;5003752;28;20316;-69
2021/10/09 09:43:49;;;;;;;5.32;3.50;;;;;;;12.15;97.55;100651.22;5004841;28;20022;-69
2021/10/09 09:46:16;;;;;;;7.60;4.60;;;;;;;12.25;98.23;100644.03;5001495;28;20042;-69
2021/10/09 09:48:43;;;;;;;3.78;2.80;;;;;;;12.32;96.71;100650.41;5002352;28;20030;-69
2021/10/09 09:51:15;;;;;;;4.30;3.13;;;;;;;12.45;95.49;100645.53;5001638;28;20121;-70
2021/10/09 09:53:41;;;;;;;6.30;4.50;;;;;;;12.39;97.17;100651.47;5000932;28;20044;-69
2021/10/09 09:56:08;;;;;;;9.18;5.25;;;;;;;12.10;97.76;100649.00;5001429;28;20041;-69
2021/10/09 09:58:45;;;;;;;11.45;6.35;;;;;;;12.20;99.09;100654.25;5003746;28;20037;-69
2021/10/09 10:01:12;;;;;;;8.93;4.72;;;;;;;12.00;98.86;100664.16;5001844;28;20351;-69
2021/10/09 10:03:42;;;;;;;7.10;4.50;;;;;;;11.99;99.18;100662.50;5004696;28;20108;-69
2021/10/09 10:06:08;;;;;;;4.60;2.80;;;;;;;12.28;98.46;100657.00;5005331;28;20223;-69
2021/10/09 10:08:33;;;;;;;6.82;3.72;;;;;;;12.10;99.79;100645.53;5006154;28;20034;-69
2021/10/09 10:11:01;;;;;;;5.78;3.40;;;;;;;11.99;100.00;100657.19;5005195;28;20038;-69
2021/10/09 10:13:30;;;;;;;2.67;2.35;;;;;;;11.63;99.89;100655.41;5005550;28;20046;-69
2021/10/09 10:16:05;;;;;;;2.00;1.70;;;;;;;11.61;100.00;100649.41;5004093;28;20022;-69
2021/10/09 10:18:43;;;;;;;2.45;1.90;;;;;;;11.74;100.00;100649.91;5005160;28;20030;-69
2021/10/09 10:21:09;;;;;;;3.08;2.25;;;;;;;11.63;100.00;100655.41;5005279;28;20057;-69
2021/10/09 10:23:38;;;;;;;3.53;2.58;;;;;;;11.71;100.00;100651.03;5005074;28;20049;-69
2021/10/09 10:26:28;;;;;;;5.30;3.45;;;;;;;11.67;100.00;100651.47;5005042;28;20193;-69
2021/10/09 10:28:53;;;;;;;3.63;2.63;;;;;;;11.90;100.00;100651.94;5005484;28;20026;-69
2021/10/09 10:31:19;;;;;;;4.55;3.47;;;;;;;11.92;100.00;100648.16;5004812;28;20411;-69
2021/10/09 10:33:49;;;;;;;4.63;2.65;;;;;;;11.91;100.00;100653.59;5004599;28;20323;-69
2021/10/09 10:36:41;;;;;;;4.82;3.47;;;;;;;12.11;100.00;100648.03;5004672;28;20049;-69
2021/10/09 10:39:09;;;;;;;3.00;1.80;;;;;;;12.04;100.00;100648.78;5005856;28;20267;-69
2021/10/09 10:41:39;;;;;;;3.10;2.20;;;;;;;11.77;100.00;100644.28;5004476;28;20061;-69
2021/10/09 10:44:06;;;;;;;3.88;2.72;;;;;;;11.67;100.00;100644.34;5005417;28;20034;-69
2021/10/09 10:54:11;;;;;;;3.63;2.03;;;;;;;11.97;100.00;100642.41;5004104;28;20046;-69
2021/10/09 10:59:30;;;;;;;3.67;1.75;;;;;;;11.98;100.00;100644.06;5009000;28;20320;-69
2021/10/09 11:02:20;;;;;;;2.45;2.05;;;;;;;12.25;100.00;100640.53;5003987;28;20695;-69
2021/10/09 11:04:54;;;;;;;7.13;4.47;;;;;;;12.44;99.83;100648.34;5003628;28;20042;-69
2021/10/09 11:07:25;;;;;;;5.95;3.78;;;;;;;12.28;99.68;100646.38;5012248;28;20322;-69
2021/10/09 11:09:51;;;;;;;1.17;0.75;;;;;;;12.14;97.48;100644.25;5005695;28;20046;-69
2021/10/09 11:12:29;;;;;;;2.90;1.92;;;;;;;11.92;99.01;100640.19;5005009;28;20038;-69
2021/10/09 11:15:15;;;;;;;4.00;2.22;;;;;;;12.10;100.00;100653.50;5003853;28;20041;-69
2021/10/09 11:17:43;;;;;;;2.50;1.88;;;;;;;12.35;99.40;100651.91;5007218;28;20288;-69
2021/10/09 11:20:20;;;;;;;7.22;2.13;;;;;;;12.04;100.00;100641.66;5004073;28;20061;-69
2021/10/09 11:22:48;;;;;;;2.85;1.38;;;;;;;11.84;100.00;100642.75;5004976;28;20034;-69
2021/10/09 11:25:42;;;;;;;1.98;1.00;;;;;;;11.72;100.00;100638.59;5013042;28;20058;-69
2021/10/09 11:28:34;;;;;;;10.10;3.72;;;;;;;12.02;100.00;100638.31;5004450;28;20050;-69
2021/10/09 11:30:59;;;;;;;4.20;1.80;;;;;;;12.08;100.00;100639.53;5011135;28;20049;-69
2021/10/09 11:33:27;;;;;;;1.33;0.90;;;;;;;11.79;100.00;100634.41;5004222;28;20070;-69
2021/10/09 11:35:56;;;;;;;2.65;1.20;;;;;;;11.66;100.00;100632.06;5003454;28;20034;-69
2021/10/09 11:38:23;;;;;;;3.85;2.00;;;;;;;11.99;100.00;100635.13;5004728;28;20062;-68
2021/10/09 11:41:24;;;;;;;2.22;1.30;;;;;;;12.12;100.00;100646.22;5003894;28;20034;-69
2021/10/09 11:43:48;;;;;;;2.63;1.52;;;;;;;11.90;100.00;100638.66;5004545;28;20216;-68
2021/10/09 11:55:24;;;;;;;2.05;1.25;;;;;;;11.72;100.00;100633.28;5016506;28;20034;-69
2021/10/09 11:57:50;;;;;;;2.65;1.77;;;;;;;11.77;100.00;100639.84;5004629;28;20088;-69
2021/10/09 12:00:45;;;;;;;3.65;2.67;;;;;;;11.89;100.00;100634.34;5004269;28;20058;-69
2021/10/09 12:03:26;;;;;;;;;;;;;;;11.88;100.00;100635.34;5011045;28;20287;-69
2021/10/09 12:06:00;;;;;;;2.38;1.95;;;;;;;11.70;100.00;100629.94;5002704;28;19914;-69
2021/10/09 12:11:14;;;;;;;2.58;1.95;;;;;;;11.59;100.00;100632.78;5002802;28;20026;-69
2021/10/09 12:13:57;;;;;;;4.60;2.42;;;;;;;11.72;100.00;100630.63;5002009;28;20038;-66
2021/10/09 12:16:42;;;;;;;0.77;0.70;;;;;;;11.52;100.00;100633.38;5002170;28;20050;-69
2021/10/09 12:19:11;;;;;;;1.08;0.70;;;;;;;11.40;100.00;100634.53;5003909;28;20112;-68
2021/10/09 12:21:57;;;;;;;1.25;1.00;;;;;;;11.65;100.00;100630.41;5002390;28;20045;-67
2021/10/09 12:24:25;;;;;;;2.13;1.50;;;;;;;11.50;100.00;100632.69;5003519;28;20068;-68
2021/10/09 12:27:21;;;;;;;2.70;1.90;;;;;;;11.74;100.00;100634.81;5002093;28;20034;-67
2021/10/09 12:30:08;;;;;;;2.20;1.60;;;;;;;11.83;100.00;100627.81;5009002;28;20050;-68
2021/10/09 12:32:41;;;;;;;1.75;1.33;;;;;;;11.88;100.00;100632.69;5004473;28;20042;-68
2021/10/09 12:35:10;;;;;;;2.75;1.40;;;;;;;12.03;100.00;100631.19;5008863;28;20037;-68
2021/10/09 12:37:37;;;;;;;4.47;2.42;;;;;;;11.96;100.00;100628.28;5005627;28;20034;-68
2021/10/09 12:40:13;;;;;;;3.90;2.75;;;;;;;12.08;100.00;100627.09;5004522;28;20316;-74
2021/10/09 12:42:45;;;;;;;4.97;3.20;;;;;;;12.20;100.00;100624.22;5005822;28;20312;-72
2021/10/09 12:45:11;;;;;;;4.88;3.47;;;;;;;12.26;99.79;100631.59;5008134;28;20057;-75
2021/10/09 12:47:36;;;;;;;2.30;1.90;;;;;;;12.53;98.51;100628.88;5006465;28;20038;-71
2021/10/09 12:50:02;;;;;;;6.93;2.40;;;;;;;12.62;97.70;100632.44;5007790;28;20040;-71
2021/10/09 12:52:28;;;;;;;6.10;3.55;;;;;;;12.50;95.84;100637.16;5008749;28;20042;-71
2021/10/09 12:54:54;;;;;;;3.58;1.67;;;;;;;12.45;96.81;100632.25;5014616;28;20050;-71
2021/10/09 12:57:20;;;;;;;4.55;2.78;;;;;;;12.54;95.47;100630.53;5004190;28;20093;-70
2021/10/09 12:59:46;;;;;;;8.20;4.90;;;;;;;12.62;94.44;100632.44;5003652;28;20049;-71
2021/10/09 13:02:11;;;;;;;5.50;3.40;;;;;;;12.70;93.77;100633.34;5002978;28;20326;-71
2021/10/09 13:04:38;;;;;;;10.18;7.03;;;;;;;12.56;95.04;100636.53;5004014;28;20396;-71
2021/10/09 13:07:03;;;;;;;14.70;8.65;;;;;;;12.57;96.02;100638.22;5002610;28;20333;-71
2021/10/09 13:09:28;;;;;;;9.77;6.60;;;;;;;12.70;95.86;100632.50;5003272;28;20034;-71
2021/10/09 13:11:59;;;;;;;3.05;1.80;;;;;;;12.68;94.99;100632.66;5003175;28;20034;-71
2021/10/09 13:14:25;;;;;;;2.42;1.80;;;;;;;12.80;93.99;100617.28;5002176;28;20054;-70
2021/10/09 13:16:50;;;;;;;1.58;1.20;;;;;;;12.90;93.67;100620.69;5003898;28;20038;-71
2021/10/09 13:19:16;;;;;;;2.67;1.40;;;;;;;12.94;94.15;100626.53;5001394;28;20050;-71
2021/10/09 13:21:42;;;;;;;0.68;0.68;;;;;;;12.96;92.96;100625.38;5003915;28;20045;-71
2021/10/09 13:24:08;;;;;;;1.58;1.02;;;;;;;12.93;92.88;100615.06;5002827;28;20061;-71
2021/10/09 13:26:34;;;;;;;1.23;0.88;;;;;;;13.10;92.08;100623.97;5002776;28;20062;-71
2021/10/09 13:29:00;;;;;;;2.63;1.55;;;;;;;13.29;91.52;100623.78;5002708;28;20343;-71
2021/10/09 13:31:26;;;;;;;4.03;1.30;;;;;;;13.28;90.69;100623.94;5002308;28;20030;-71
2021/10/09 13:33:52;;;;;;;3.30;1.63;;;;;;;13.17;90.75;100621.56;5002285;28;20069;-71
2021/10/09 13:36:18;;;;;;;3.67;1.73;;;;;;;13.30;90.49;100628.09;5001969;28;20042;-70
2021/10/09 13:38:44;;;;;;;2.35;1.50;;;;;;;13.20;91.20;100630.06;5006825;28;20053;-71
2021/10/09 13:41:11;;;;;;;2.90;1.42;;;;;;;13.27;91.83;100631.09;5006814;28;20411;-71
2021/10/09 13:43:36;;;;;;;1.08;0.75;;;;;;;13.39;90.23;100631.66;5006968;28;20247;-73
2021/10/09 13:46:02;;;;;;;0.70;0.70;;;;;;;13.33;89.64;100619.81;5005894;28;20093;-72
2021/10/09 13:48:27;;;;;;;0.63;0.47;;;;;;;13.19;90.29;100625.72;5006405;28;20030;-73
2021/10/09 13:50:53;;;;;;;0.35;0.35;;;;;;;13.38;88.73;100622.00;5007682;28;20126;-70
2021/10/09 13:53:20;;;;;;;0.40;0.40;;;;;;;13.37;90.13;100629.16;5005979;28;20395;-71
2021/10/09 13:55:46;;;;;;;0.40;0.40;;;;;;;13.37;89.88;100629.16;5004915;28;20236;-73